sensor_id;sensor_type;location;lat;lon;timestamp;P1;durP1;ratioP1;P2;durP2;ratioP2
11228;SDS011;5671;47.936;8.716;2023-03-01T00:01:00;8.57;;;7.47;;
11228;SDS011;5671;47.936;8.716;2023-03-01T00:03:27;8.43;;;6.68;;
11228;SDS011;5671;47.936;8.716;2023-03-01T00:05:54;10.05;;;7.38;;
11228;SDS011;5671;47.936;8.716;2023-03-01T00:08:20;12.07;;;7.78;;
11228;SDS011;5671;47.936;8.716;2023-03-01T00:10:47;9.70;;;7.30;;
11228;SDS011;5671;47.936;8.716;2023-03-01T00:13:14;9.77;;;7.60;;
11228;SDS011;5671;47.936;8.716;2023-03-01T00:15:43;9.88;;;7.80;;
11228;SDS011;5671;47.936;8.716;2023-03-01T00:18:11;9.68;;;8.07;;
11228;SDS011;5671;47.936;8.716;2023-03-01T00:20:38;12.27;;;8.80;;
11228;SDS011;5671;47.936;8.716;2023-03-01T00:23:05;10.23;;;8.48;;
11228;SDS011;5671;47.936;8.716;2023-03-01T00:25:31;10.35;;;7.97;;
11228;SDS011;5671;47.936;8.716;2023-03-01T00:27:58;10.50;;;8.40;;
11228;SDS011;5671;47.936;8.716;2023-03-01T00:30:25;10.35;;;8.50;;
11228;SDS011;5671;47.936;8.716;2023-03-01T00:32:52;9.80;;;7.68;;
11228;SDS011;5671;47.936;8.716;2023-03-01T00:35:20;8.18;;;7.13;;
11228;SDS011;5671;47.936;8.716;2023-03-01T00:37:47;8.88;;;7.47;;
11228;SDS011;5671;47.936;8.716;2023-03-01T00:40:18;7.70;;;6.95;;
11228;SDS011;5671;47.936;8.716;2023-03-01T00:42:45;8.65;;;7.47;;
11228;SDS011;5671;47.936;8.716;2023-03-01T00:45:12;9.73;;;7.40;;
11228;SDS011;5671;47.936;8.716;2023-03-01T00:47:38;10.35;;;7.82;;
11228;SDS011;5671;47.936;8.716;2023-03-01T00:50:05;7.88;;;6.95;;
11228;SDS011;5671;47.936;8.716;2023-03-01T00:52:34;8.45;;;7.43;;
11228;SDS011;5671;47.936;8.716;2023-03-01T00:55:01;10.50;;;7.00;;
11228;SDS011;5671;47.936;8.716;2023-03-01T00:57:28;7.70;;;6.78;;
11228;SDS011;5671;47.936;8.716;2023-03-01T00:59:55;9.40;;;7.03;;
11228;SDS011;5671;47.936;8.716;2023-03-01T01:02:22;9.60;;;7.65;;
11228;SDS011;5671;47.936;8.716;2023-03-01T01:04:49;7.88;;;7.03;;
11228;SDS011;5671;47.936;8.716;2023-03-01T01:07:16;9.05;;;7.70;;
11228;SDS011;5671;47.936;8.716;2023-03-01T01:09:46;9.23;;;7.78;;
11228;SDS011;5671;47.936;8.716;2023-03-01T01:12:13;8.77;;;7.45;;
11228;SDS011;5671;47.936;8.716;2023-03-01T01:14:39;8.80;;;7.90;;
11228;SDS011;5671;47.936;8.716;2023-03-01T01:17:06;11.10;;;8.45;;
11228;SDS011;5671;47.936;8.716;2023-03-01T01:19:33;8.40;;;7.50;;
11228;SDS011;5671;47.936;8.716;2023-03-01T01:22:00;8.85;;;7.63;;
11228;SDS011;5671;47.936;8.716;2023-03-01T01:24:27;9.30;;;7.93;;
11228;SDS011;5671;47.936;8.716;2023-03-01T01:26:55;10.07;;;8.45;;
11228;SDS011;5671;47.936;8.716;2023-03-01T01:29:22;10.93;;;7.68;;
11228;SDS011;5671;47.936;8.716;2023-03-01T01:31:49;10.27;;;9.18;;
11228;SDS011;5671;47.936;8.716;2023-03-01T01:34:16;9.60;;;8.60;;
11228;SDS011;5671;47.936;8.716;2023-03-01T01:36:48;14.17;;;8.93;;
11228;SDS011;5671;47.936;8.716;2023-03-01T01:39:16;10.05;;;8.90;;
11228;SDS011;5671;47.936;8.716;2023-03-01T01:41:43;11.73;;;9.35;;
11228;SDS011;5671;47.936;8.716;2023-03-01T01:44:13;12.82;;;9.40;;
11228;SDS011;5671;47.936;8.716;2023-03-01T01:46:42;10.40;;;9.03;;
11228;SDS011;5671;47.936;8.716;2023-03-01T01:49:22;9.90;;;8.90;;
11228;SDS011;5671;47.936;8.716;2023-03-01T01:51:55;9.57;;;8.63;;
11228;SDS011;5671;47.936;8.716;2023-03-01T01:54:27;10.50;;;9.17;;
11228;SDS011;5671;47.936;8.716;2023-03-01T01:57:00;11.53;;;9.20;;
11228;SDS011;5671;47.936;8.716;2023-03-01T01:59:31;11.68;;;8.57;;
11228;SDS011;5671;47.936;8.716;2023-03-01T02:01:59;10.13;;;8.83;;
11228;SDS011;5671;47.936;8.716;2023-03-01T02:04:29;12.00;;;9.23;;
11228;SDS011;5671;47.936;8.716;2023-03-01T02:06:58;10.13;;;9.10;;
11228;SDS011;5671;47.936;8.716;2023-03-01T02:09:29;10.50;;;9.40;;
11228;SDS011;5671;47.936;8.716;2023-03-01T02:11:58;10.45;;;9.10;;
11228;SDS011;5671;47.936;8.716;2023-03-01T02:14:25;10.00;;;8.97;;
11228;SDS011;5671;47.936;8.716;2023-03-01T02:16:53;13.93;;;9.93;;
11228;SDS011;5671;47.936;8.716;2023-03-01T02:19:23;10.57;;;9.48;;
11228;SDS011;5671;47.936;8.716;2023-03-01T02:22:02;11.13;;;9.50;;
11228;SDS011;5671;47.936;8.716;2023-03-01T02:24:39;11.90;;;9.53;;
11228;SDS011;5671;47.936;8.716;2023-03-01T02:27:13;11.90;;;9.80;;
11228;SDS011;5671;47.936;8.716;2023-03-01T02:29:42;11.18;;;9.80;;
11228;SDS011;5671;47.936;8.716;2023-03-01T02:32:09;10.55;;;9.13;;
11228;SDS011;5671;47.936;8.716;2023-03-01T02:34:38;10.43;;;9.37;;
11228;SDS011;5671;47.936;8.716;2023-03-01T02:37:06;11.03;;;9.33;;
11228;SDS011;5671;47.936;8.716;2023-03-01T02:39:38;10.53;;;9.50;;
11228;SDS011;5671;47.936;8.716;2023-03-01T02:42:08;9.93;;;8.88;;
11228;SDS011;5671;47.936;8.716;2023-03-01T02:44:38;12.07;;;9.30;;
11228;SDS011;5671;47.936;8.716;2023-03-01T02:47:08;11.07;;;9.70;;
11228;SDS011;5671;47.936;8.716;2023-03-01T02:49:35;11.30;;;9.80;;
11228;SDS011;5671;47.936;8.716;2023-03-01T02:52:14;10.20;;;9.13;;
11228;SDS011;5671;47.936;8.716;2023-03-01T02:54:56;10.87;;;9.70;;
11228;SDS011;5671;47.936;8.716;2023-03-01T02:57:27;11.03;;;9.60;;
11228;SDS011;5671;47.936;8.716;2023-03-01T02:59:56;9.93;;;8.93;;
11228;SDS011;5671;47.936;8.716;2023-03-01T03:02:28;10.07;;;9.07;;
11228;SDS011;5671;47.936;8.716;2023-03-01T03:05:03;10.73;;;9.57;;
11228;SDS011;5671;47.936;8.716;2023-03-01T03:07:34;11.30;;;9.57;;
11228;SDS011;5671;47.936;8.716;2023-03-01T03:10:02;11.07;;;9.97;;
11228;SDS011;5671;47.936;8.716;2023-03-01T03:12:30;11.23;;;10.10;;
11228;SDS011;5671;47.936;8.716;2023-03-01T03:14:56;10.10;;;9.03;;
11228;SDS011;5671;47.936;8.716;2023-03-01T03:17:23;10.40;;;9.40;;
11228;SDS011;5671;47.936;8.716;2023-03-01T03:19:52;11.50;;;10.37;;
11228;SDS011;5671;47.936;8.716;2023-03-01T03:22:18;11.40;;;9.37;;
11228;SDS011;5671;47.936;8.716;2023-03-01T03:24:47;10.53;;;9.43;;
11228;SDS011;5671;47.936;8.716;2023-03-01T03:27:14;10.43;;;9.23;;
11228;SDS011;5671;47.936;8.716;2023-03-01T03:29:41;10.33;;;9.23;;
11228;SDS011;5671;47.936;8.716;2023-03-01T03:32:08;10.30;;;9.20;;
11228;SDS011;5671;47.936;8.716;2023-03-01T03:34:36;11.80;;;9.40;;
11228;SDS011;5671;47.936;8.716;2023-03-01T03:37:04;10.90;;;9.40;;
11228;SDS011;5671;47.936;8.716;2023-03-01T03:39:51;10.80;;;9.70;;
11228;SDS011;5671;47.936;8.716;2023-03-01T03:42:19;12.23;;;10.33;;
11228;SDS011;5671;47.936;8.716;2023-03-01T03:44:46;11.43;;;10.10;;
11228;SDS011;5671;47.936;8.716;2023-03-01T03:47:13;10.47;;;9.37;;
11228;SDS011;5671;47.936;8.716;2023-03-01T03:49:40;11.37;;;10.03;;
11228;SDS011;5671;47.936;8.716;2023-03-01T03:52:09;11.13;;;9.93;;
11228;SDS011;5671;47.936;8.716;2023-03-01T03:54:38;12.23;;;10.17;;
11228;SDS011;5671;47.936;8.716;2023-03-01T03:57:05;10.87;;;9.77;;
11228;SDS011;5671;47.936;8.716;2023-03-01T03:59:32;12.13;;;10.27;;
11228;SDS011;5671;47.936;8.716;2023-03-01T04:01:59;13.47;;;10.77;;
11228;SDS011;5671;47.936;8.716;2023-03-01T04:04:26;11.43;;;9.87;;
11228;SDS011;5671;47.936;8.716;2023-03-01T04:06:52;12.23;;;10.67;;
11228;SDS011;5671;47.936;8.716;2023-03-01T04:09:21;13.23;;;10.43;;
11228;SDS011;5671;47.936;8.716;2023-03-01T04:11:47;11.43;;;10.00;;
11228;SDS011;5671;47.936;8.716;2023-03-01T04:14:14;10.73;;;9.63;;
11228;SDS011;5671;47.936;8.716;2023-03-01T04:16:43;12.33;;;10.30;;
11228;SDS011;5671;47.936;8.716;2023-03-01T04:19:10;11.30;;;10.10;;
11228;SDS011;5671;47.936;8.716;2023-03-01T04:21:37;11.97;;;9.70;;
11228;SDS011;5671;47.936;8.716;2023-03-01T04:24:04;11.57;;;10.03;;
11228;SDS011;5671;47.936;8.716;2023-03-01T04:26:33;11.53;;;10.33;;
11228;SDS011;5671;47.936;8.716;2023-03-01T04:29:00;11.87;;;10.67;;
11228;SDS011;5671;47.936;8.716;2023-03-01T04:31:26;13.73;;;10.60;;
11228;SDS011;5671;47.936;8.716;2023-03-01T04:33:54;12.70;;;11.40;;
11228;SDS011;5671;47.936;8.716;2023-03-01T04:36:23;13.90;;;11.00;;
11228;SDS011;5671;47.936;8.716;2023-03-01T04:38:51;11.80;;;10.00;;
11228;SDS011;5671;47.936;8.716;2023-03-01T04:41:19;11.97;;;10.20;;
11228;SDS011;5671;47.936;8.716;2023-03-01T04:43:48;11.23;;;10.03;;
11228;SDS011;5671;47.936;8.716;2023-03-01T04:46:15;12.40;;;11.10;;
11228;SDS011;5671;47.936;8.716;2023-03-01T04:48:44;13.10;;;9.93;;
11228;SDS011;5671;47.936;8.716;2023-03-01T04:51:12;11.73;;;10.53;;
11228;SDS011;5671;47.936;8.716;2023-03-01T04:53:39;11.87;;;10.63;;
11228;SDS011;5671;47.936;8.716;2023-03-01T04:56:07;11.80;;;10.50;;
11228;SDS011;5671;47.936;8.716;2023-03-01T04:58:34;10.97;;;9.87;;
11228;SDS011;5671;47.936;8.716;2023-03-01T05:01:07;17.03;;;10.37;;
11228;SDS011;5671;47.936;8.716;2023-03-01T05:03:40;11.33;;;10.13;;
11228;SDS011;5671;47.936;8.716;2023-03-01T05:06:07;11.77;;;9.93;;
11228;SDS011;5671;47.936;8.716;2023-03-01T05:08:33;11.70;;;10.48;;
11228;SDS011;5671;47.936;8.716;2023-03-01T05:11:03;12.03;;;10.77;;
11228;SDS011;5671;47.936;8.716;2023-03-01T05:13:30;12.17;;;10.90;;
11228;SDS011;5671;47.936;8.716;2023-03-01T05:15:58;12.63;;;10.50;;
11228;SDS011;5671;47.936;8.716;2023-03-01T05:18:28;12.37;;;10.97;;
11228;SDS011;5671;47.936;8.716;2023-03-01T05:21:01;12.17;;;10.87;;
11228;SDS011;5671;47.936;8.716;2023-03-01T05:23:32;13.97;;;11.20;;
11228;SDS011;5671;47.936;8.716;2023-03-01T05:26:01;12.93;;;11.60;;
11228;SDS011;5671;47.936;8.716;2023-03-01T05:28:29;12.27;;;10.97;;
11228;SDS011;5671;47.936;8.716;2023-03-01T05:30:56;13.80;;;10.90;;
11228;SDS011;5671;47.936;8.716;2023-03-01T05:33:24;13.40;;;10.97;;
11228;SDS011;5671;47.936;8.716;2023-03-01T05:35:52;14.47;;;11.60;;
11228;SDS011;5671;47.936;8.716;2023-03-01T05:38:20;12.20;;;10.80;;
11228;SDS011;5671;47.936;8.716;2023-03-01T05:40:47;12.17;;;10.70;;
11228;SDS011;5671;47.936;8.716;2023-03-01T05:43:15;12.57;;;10.30;;
11228;SDS011;5671;47.936;8.716;2023-03-01T05:45:43;11.63;;;10.43;;
11228;SDS011;5671;47.936;8.716;2023-03-01T05:48:10;16.77;;;12.13;;
11228;SDS011;5671;47.936;8.716;2023-03-01T05:50:39;12.43;;;11.10;;
11228;SDS011;5671;47.936;8.716;2023-03-01T05:53:10;17.37;;;11.80;;
11228;SDS011;5671;47.936;8.716;2023-03-01T05:55:38;12.00;;;10.17;;
11228;SDS011;5671;47.936;8.716;2023-03-01T05:58:06;13.23;;;11.83;;
11228;SDS011;5671;47.936;8.716;2023-03-01T06:00:34;12.27;;;10.97;;
11228;SDS011;5671;47.936;8.716;2023-03-01T06:03:01;13.43;;;10.67;;
11228;SDS011;5671;47.936;8.716;2023-03-01T06:05:28;12.03;;;10.73;;
11228;SDS011;5671;47.936;8.716;2023-03-01T06:07:57;12.93;;;11.53;;
11228;SDS011;5671;47.936;8.716;2023-03-01T06:10:26;13.35;;;11.52;;
11228;SDS011;5671;47.936;8.716;2023-03-01T06:12:53;12.87;;;10.97;;
11228;SDS011;5671;47.936;8.716;2023-03-01T06:15:20;13.77;;;10.90;;
11228;SDS011;5671;47.936;8.716;2023-03-01T06:17:48;13.27;;;10.73;;
11228;SDS011;5671;47.936;8.716;2023-03-01T06:20:15;16.30;;;11.40;;
11228;SDS011;5671;47.936;8.716;2023-03-01T06:22:44;12.57;;;10.50;;
11228;SDS011;5671;47.936;8.716;2023-03-01T06:25:11;16.07;;;11.40;;
11228;SDS011;5671;47.936;8.716;2023-03-01T06:27:40;12.43;;;11.23;;
11228;SDS011;5671;47.936;8.716;2023-03-01T06:30:08;13.87;;;11.47;;
11228;SDS011;5671;47.936;8.716;2023-03-01T06:32:37;12.10;;;10.77;;
11228;SDS011;5671;47.936;8.716;2023-03-01T06:35:08;16.57;;;11.83;;
11228;SDS011;5671;47.936;8.716;2023-03-01T06:37:35;12.13;;;10.83;;
11228;SDS011;5671;47.936;8.716;2023-03-01T06:40:02;12.80;;;11.13;;
11228;SDS011;5671;47.936;8.716;2023-03-01T06:42:33;13.87;;;12.03;;
11228;SDS011;5671;47.936;8.716;2023-03-01T06:45:01;15.57;;;11.50;;
11228;SDS011;5671;47.936;8.716;2023-03-01T06:47:28;13.77;;;11.87;;
11228;SDS011;5671;47.936;8.716;2023-03-01T06:49:55;14.17;;;11.03;;
11228;SDS011;5671;47.936;8.716;2023-03-01T06:52:22;12.13;;;10.93;;
11228;SDS011;5671;47.936;8.716;2023-03-01T06:54:48;16.10;;;11.40;;
11228;SDS011;5671;47.936;8.716;2023-03-01T06:57:15;12.87;;;11.57;;
11228;SDS011;5671;47.936;8.716;2023-03-01T06:59:42;14.77;;;12.10;;
11228;SDS011;5671;47.936;8.716;2023-03-01T07:02:11;14.33;;;11.33;;
11228;SDS011;5671;47.936;8.716;2023-03-01T07:04:39;14.30;;;11.10;;
11228;SDS011;5671;47.936;8.716;2023-03-01T07:07:05;13.97;;;11.00;;
11228;SDS011;5671;47.936;8.716;2023-03-01T07:09:32;12.00;;;10.67;;
11228;SDS011;5671;47.936;8.716;2023-03-01T07:12:01;14.13;;;11.35;;
11228;SDS011;5671;47.936;8.716;2023-03-01T07:14:29;12.57;;;11.27;;
11228;SDS011;5671;47.936;8.716;2023-03-01T07:16:55;13.00;;;11.33;;
11228;SDS011;5671;47.936;8.716;2023-03-01T07:19:24;12.27;;;10.93;;
11228;SDS011;5671;47.936;8.716;2023-03-01T07:21:51;13.10;;;11.07;;
11228;SDS011;5671;47.936;8.716;2023-03-01T07:24:18;12.00;;;9.77;;
11228;SDS011;5671;47.936;8.716;2023-03-01T07:26:47;11.37;;;10.10;;
11228;SDS011;5671;47.936;8.716;2023-03-01T07:29:14;11.73;;;10.53;;
11228;SDS011;5671;47.936;8.716;2023-03-01T07:31:42;15.00;;;11.60;;
11228;SDS011;5671;47.936;8.716;2023-03-01T07:34:08;11.77;;;10.57;;
11228;SDS011;5671;47.936;8.716;2023-03-01T07:36:37;12.53;;;10.70;;
11228;SDS011;5671;47.936;8.716;2023-03-01T07:39:08;13.27;;;10.37;;
11228;SDS011;5671;47.936;8.716;2023-03-01T07:41:35;14.07;;;10.40;;
11228;SDS011;5671;47.936;8.716;2023-03-01T07:44:02;12.90;;;10.83;;
11228;SDS011;5671;47.936;8.716;2023-03-01T07:46:29;13.03;;;11.00;;
11228;SDS011;5671;47.936;8.716;2023-03-01T07:48:56;14.67;;;10.70;;
11228;SDS011;5671;47.936;8.716;2023-03-01T07:51:23;11.47;;;10.27;;
11228;SDS011;5671;47.936;8.716;2023-03-01T07:53:51;14.10;;;10.50;;
11228;SDS011;5671;47.936;8.716;2023-03-01T07:56:18;12.43;;;11.13;;
11228;SDS011;5671;47.936;8.716;2023-03-01T07:58:47;12.17;;;10.70;;
11228;SDS011;5671;47.936;8.716;2023-03-01T08:01:15;12.57;;;9.97;;
11228;SDS011;5671;47.936;8.716;2023-03-01T08:03:42;14.13;;;11.10;;
11228;SDS011;5671;47.936;8.716;2023-03-01T08:06:10;12.17;;;10.67;;
11228;SDS011;5671;47.936;8.716;2023-03-01T08:08:38;17.07;;;11.33;;
11228;SDS011;5671;47.936;8.716;2023-03-01T08:11:07;13.70;;;11.33;;
11228;SDS011;5671;47.936;8.716;2023-03-01T08:13:36;11.37;;;10.23;;
11228;SDS011;5671;47.936;8.716;2023-03-01T08:16:03;14.40;;;11.00;;
11228;SDS011;5671;47.936;8.716;2023-03-01T08:18:32;12.47;;;10.57;;
11228;SDS011;5671;47.936;8.716;2023-03-01T08:21:01;12.33;;;10.93;;
11228;SDS011;5671;47.936;8.716;2023-03-01T08:23:28;12.80;;;10.93;;
11228;SDS011;5671;47.936;8.716;2023-03-01T08:26:02;13.53;;;11.13;;
11228;SDS011;5671;47.936;8.716;2023-03-01T08:28:32;14.87;;;11.40;;
11228;SDS011;5671;47.936;8.716;2023-03-01T08:30:59;13.37;;;10.77;;
11228;SDS011;5671;47.936;8.716;2023-03-01T08:33:26;14.63;;;12.30;;
11228;SDS011;5671;47.936;8.716;2023-03-01T08:36:01;11.87;;;10.50;;
11228;SDS011;5671;47.936;8.716;2023-03-01T08:38:28;14.23;;;10.40;;
11228;SDS011;5671;47.936;8.716;2023-03-01T08:40:55;12.07;;;10.67;;
11228;SDS011;5671;47.936;8.716;2023-03-01T08:43:25;12.30;;;11.00;;
11228;SDS011;5671;47.936;8.716;2023-03-01T08:45:54;11.90;;;10.37;;
11228;SDS011;5671;47.936;8.716;2023-03-01T08:48:22;11.87;;;10.53;;
11228;SDS011;5671;47.936;8.716;2023-03-01T08:50:49;12.13;;;10.43;;
11228;SDS011;5671;47.936;8.716;2023-03-01T08:53:16;13.60;;;11.33;;
11228;SDS011;5671;47.936;8.716;2023-03-01T08:55:43;13.73;;;10.67;;
11228;SDS011;5671;47.936;8.716;2023-03-01T08:58:10;11.13;;;10.00;;
11228;SDS011;5671;47.936;8.716;2023-03-01T09:00:37;14.77;;;11.33;;
11228;SDS011;5671;47.936;8.716;2023-03-01T09:03:06;14.80;;;11.07;;
11228;SDS011;5671;47.936;8.716;2023-03-01T09:05:34;13.17;;;11.03;;
11228;SDS011;5671;47.936;8.716;2023-03-01T09:08:01;13.53;;;10.43;;
11228;SDS011;5671;47.936;8.716;2023-03-01T09:10:28;11.50;;;10.33;;
11228;SDS011;5671;47.936;8.716;2023-03-01T09:12:55;13.70;;;11.07;;
11228;SDS011;5671;47.936;8.716;2023-03-01T09:15:22;13.93;;;10.33;;
11228;SDS011;5671;47.936;8.716;2023-03-01T09:17:49;14.30;;;10.93;;
11228;SDS011;5671;47.936;8.716;2023-03-01T09:20:18;11.90;;;10.50;;
11228;SDS011;5671;47.936;8.716;2023-03-01T09:22:45;13.23;;;10.03;;
11228;SDS011;5671;47.936;8.716;2023-03-01T09:25:11;15.83;;;11.03;;
11228;SDS011;5671;47.936;8.716;2023-03-01T09:27:38;17.40;;;10.97;;
11228;SDS011;5671;47.936;8.716;2023-03-01T09:30:06;15.27;;;10.80;;
11228;SDS011;5671;47.936;8.716;2023-03-01T09:32:34;12.03;;;10.60;;
11228;SDS011;5671;47.936;8.716;2023-03-01T09:35:00;11.53;;;10.27;;
11228;SDS011;5671;47.936;8.716;2023-03-01T09:37:31;11.00;;;9.53;;
11228;SDS011;5671;47.936;8.716;2023-03-01T09:40:04;13.73;;;10.00;;
11228;SDS011;5671;47.936;8.716;2023-03-01T09:45:43;12.33;;;11.00;;
11228;SDS011;5671;47.936;8.716;2023-03-01T09:48:15;14.50;;;10.80;;
11228;SDS011;5671;47.936;8.716;2023-03-01T09:50:47;11.60;;;9.67;;
11228;SDS011;5671;47.936;8.716;2023-03-01T09:53:16;12.23;;;10.87;;
11228;SDS011;5671;47.936;8.716;2023-03-01T09:55:46;14.07;;;11.00;;
11228;SDS011;5671;47.936;8.716;2023-03-01T09:58:35;12.63;;;11.30;;
11228;SDS011;5671;47.936;8.716;2023-03-01T10:01:15;11.00;;;9.87;;
11228;SDS011;5671;47.936;8.716;2023-03-01T10:04:04;12.13;;;10.83;;
11228;SDS011;5671;47.936;8.716;2023-03-01T10:07:21;14.10;;;10.47;;
11228;SDS011;5671;47.936;8.716;2023-03-01T10:10:00;11.07;;;9.67;;
11228;SDS011;5671;47.936;8.716;2023-03-01T10:12:31;12.17;;;9.63;;
11228;SDS011;5671;47.936;8.716;2023-03-01T10:15:03;13.50;;;10.50;;
11228;SDS011;5671;47.936;8.716;2023-03-01T10:17:36;13.30;;;10.53;;
11228;SDS011;5671;47.936;8.716;2023-03-01T10:20:11;12.73;;;10.47;;
11228;SDS011;5671;47.936;8.716;2023-03-01T10:22:43;15.07;;;12.17;;
11228;SDS011;5671;47.936;8.716;2023-03-01T10:25:17;12.90;;;10.33;;
11228;SDS011;5671;47.936;8.716;2023-03-01T10:28:04;11.90;;;10.43;;
11228;SDS011;5671;47.936;8.716;2023-03-01T10:30:41;12.00;;;9.90;;
11228;SDS011;5671;47.936;8.716;2023-03-01T10:33:12;10.43;;;9.40;;
11228;SDS011;5671;47.936;8.716;2023-03-01T10:35:47;10.60;;;9.50;;
11228;SDS011;5671;47.936;8.716;2023-03-01T10:38:15;10.50;;;9.37;;
11228;SDS011;5671;47.936;8.716;2023-03-01T10:40:56;11.00;;;9.90;;
11228;SDS011;5671;47.936;8.716;2023-03-01T10:43:43;13.73;;;10.23;;
11228;SDS011;5671;47.936;8.716;2023-03-01T10:46:26;14.27;;;9.63;;
11228;SDS011;5671;47.936;8.716;2023-03-01T10:49:13;11.63;;;9.63;;
11228;SDS011;5671;47.936;8.716;2023-03-01T10:54:54;11.20;;;9.90;;
11228;SDS011;5671;47.936;8.716;2023-03-01T10:57:33;11.37;;;9.97;;
11228;SDS011;5671;47.936;8.716;2023-03-01T11:00:14;12.07;;;10.57;;
11228;SDS011;5671;47.936;8.716;2023-03-01T11:02:47;13.80;;;11.03;;
11228;SDS011;5671;47.936;8.716;2023-03-01T11:05:30;13.03;;;9.23;;
11228;SDS011;5671;47.936;8.716;2023-03-01T11:08:25;12.10;;;9.73;;
11228;SDS011;5671;47.936;8.716;2023-03-01T11:11:23;15.70;;;9.67;;
11228;SDS011;5671;47.936;8.716;2023-03-01T11:14:35;10.37;;;9.17;;
11228;SDS011;5671;47.936;8.716;2023-03-01T11:17:15;10.00;;;9.00;;
11228;SDS011;5671;47.936;8.716;2023-03-01T11:26:46;13.10;;;9.80;;
11228;SDS011;5671;47.936;8.716;2023-03-01T11:29:21;11.33;;;9.97;;
11228;SDS011;5671;47.936;8.716;2023-03-01T11:42:29;11.03;;;9.33;;
11228;SDS011;5671;47.936;8.716;2023-03-01T12:50:36;11.93;;;10.53;;
11228;SDS011;5671;47.936;8.716;2023-03-01T12:56:19;17.30;;;11.47;;
11228;SDS011;5671;47.936;8.716;2023-03-01T12:59:28;11.50;;;10.00;;
11228;SDS011;5671;47.936;8.716;2023-03-01T13:02:22;12.10;;;10.83;;
11228;SDS011;5671;47.936;8.716;2023-03-01T13:35:15;13.17;;;11.20;;
11228;SDS011;5671;47.936;8.716;2023-03-01T14:21:40;11.87;;;10.60;;
11228;SDS011;5671;47.936;8.716;2023-03-01T14:24:17;16.20;;;10.50;;
11228;SDS011;5671;47.936;8.716;2023-03-01T14:30:44;10.57;;;9.57;;
11228;SDS011;5671;47.936;8.716;2023-03-01T14:36:34;11.43;;;10.23;;
11228;SDS011;5671;47.936;8.716;2023-03-01T14:39:17;13.80;;;10.53;;
11228;SDS011;5671;47.936;8.716;2023-03-01T14:41:46;11.23;;;10.13;;
11228;SDS011;5671;47.936;8.716;2023-03-01T14:44:14;12.37;;;10.70;;
11228;SDS011;5671;47.936;8.716;2023-03-01T14:46:51;14.93;;;11.80;;
11228;SDS011;5671;47.936;8.716;2023-03-01T14:49:20;12.00;;;10.50;;
11228;SDS011;5671;47.936;8.716;2023-03-01T14:51:51;18.03;;;12.37;;
11228;SDS011;5671;47.936;8.716;2023-03-01T14:54:25;13.80;;;10.03;;
11228;SDS011;5671;47.936;8.716;2023-03-01T14:56:54;19.07;;;11.00;;
11228;SDS011;5671;47.936;8.716;2023-03-01T14:59:24;17.03;;;11.87;;
11228;SDS011;5671;47.936;8.716;2023-03-01T15:01:51;12.40;;;11.13;;
11228;SDS011;5671;47.936;8.716;2023-03-01T15:04:21;13.37;;;10.93;;
11228;SDS011;5671;47.936;8.716;2023-03-01T15:06:50;13.80;;;11.13;;
11228;SDS011;5671;47.936;8.716;2023-03-01T15:09:18;13.13;;;10.80;;
11228;SDS011;5671;47.936;8.716;2023-03-01T15:11:46;12.30;;;10.70;;
11228;SDS011;5671;47.936;8.716;2023-03-01T15:14:24;12.93;;;11.63;;
11228;SDS011;5671;47.936;8.716;2023-03-01T15:16:53;13.33;;;10.47;;
11228;SDS011;5671;47.936;8.716;2023-03-01T15:19:20;11.83;;;10.63;;
11228;SDS011;5671;47.936;8.716;2023-03-01T15:21:50;12.47;;;11.00;;
11228;SDS011;5671;47.936;8.716;2023-03-01T15:24:17;12.17;;;10.87;;
11228;SDS011;5671;47.936;8.716;2023-03-01T15:26:52;14.47;;;11.17;;
11228;SDS011;5671;47.936;8.716;2023-03-01T15:29:23;11.70;;;10.53;;
11228;SDS011;5671;47.936;8.716;2023-03-01T15:31:55;11.80;;;10.60;;
11228;SDS011;5671;47.936;8.716;2023-03-01T15:34:24;12.40;;;11.10;;
11228;SDS011;5671;47.936;8.716;2023-03-01T15:36:54;12.73;;;10.77;;
11228;SDS011;5671;47.936;8.716;2023-03-01T15:39:36;12.23;;;10.70;;
11228;SDS011;5671;47.936;8.716;2023-03-01T15:42:10;12.93;;;11.60;;
11228;SDS011;5671;47.936;8.716;2023-03-01T15:44:39;13.87;;;11.73;;
11228;SDS011;5671;47.936;8.716;2023-03-01T15:47:23;12.07;;;10.83;;
11228;SDS011;5671;47.936;8.716;2023-03-01T15:49:54;13.03;;;11.63;;
11228;SDS011;5671;47.936;8.716;2023-03-01T15:52:23;11.93;;;10.73;;
11228;SDS011;5671;47.936;8.716;2023-03-01T15:54:55;12.60;;;11.20;;
11228;SDS011;5671;47.936;8.716;2023-03-01T15:57:27;13.10;;;11.37;;
11228;SDS011;5671;47.936;8.716;2023-03-01T15:59:54;13.90;;;11.33;;
11228;SDS011;5671;47.936;8.716;2023-03-01T16:02:21;12.03;;;10.83;;
11228;SDS011;5671;47.936;8.716;2023-03-01T16:04:49;14.33;;;11.30;;
11228;SDS011;5671;47.936;8.716;2023-03-01T16:07:16;11.90;;;10.70;;
11228;SDS011;5671;47.936;8.716;2023-03-01T16:09:44;17.23;;;11.50;;
11228;SDS011;5671;47.936;8.716;2023-03-01T16:12:12;17.63;;;10.67;;
11228;SDS011;5671;47.936;8.716;2023-03-01T16:14:42;12.37;;;11.07;;
11228;SDS011;5671;47.936;8.716;2023-03-01T16:17:09;15.80;;;10.83;;
11228;SDS011;5671;47.936;8.716;2023-03-01T16:19:37;15.63;;;11.20;;
11228;SDS011;5671;47.936;8.716;2023-03-01T16:22:04;14.17;;;9.73;;
11228;SDS011;5671;47.936;8.716;2023-03-01T16:24:31;12.30;;;11.00;;
11228;SDS011;5671;47.936;8.716;2023-03-01T16:26:58;14.87;;;10.53;;
11228;SDS011;5671;47.936;8.716;2023-03-01T16:29:25;14.50;;;10.33;;
11228;SDS011;5671;47.936;8.716;2023-03-01T16:31:53;12.77;;;10.93;;
11228;SDS011;5671;47.936;8.716;2023-03-01T16:34:20;12.63;;;11.33;;
11228;SDS011;5671;47.936;8.716;2023-03-01T16:36:48;19.43;;;11.93;;
11228;SDS011;5671;47.936;8.716;2023-03-01T16:39:15;13.43;;;10.77;;
11228;SDS011;5671;47.936;8.716;2023-03-01T16:41:42;16.47;;;11.90;;
11228;SDS011;5671;47.936;8.716;2023-03-01T16:44:09;12.43;;;11.13;;
11228;SDS011;5671;47.936;8.716;2023-03-01T16:46:36;14.27;;;11.63;;
11228;SDS011;5671;47.936;8.716;2023-03-01T16:49:04;13.10;;;11.27;;
11228;SDS011;5671;47.936;8.716;2023-03-01T16:51:31;12.40;;;11.20;;
11228;SDS011;5671;47.936;8.716;2023-03-01T16:54:00;14.53;;;11.60;;
11228;SDS011;5671;47.936;8.716;2023-03-01T16:56:29;14.93;;;10.93;;
11228;SDS011;5671;47.936;8.716;2023-03-01T16:58:59;16.17;;;11.60;;
11228;SDS011;5671;47.936;8.716;2023-03-01T17:01:26;13.30;;;11.90;;
11228;SDS011;5671;47.936;8.716;2023-03-01T17:03:57;12.80;;;11.40;;
11228;SDS011;5671;47.936;8.716;2023-03-01T17:06:27;13.17;;;11.43;;
11228;SDS011;5671;47.936;8.716;2023-03-01T17:08:54;16.43;;;11.87;;
11228;SDS011;5671;47.936;8.716;2023-03-01T17:11:21;13.27;;;11.87;;
11228;SDS011;5671;47.936;8.716;2023-03-01T17:13:48;14.53;;;12.30;;
11228;SDS011;5671;47.936;8.716;2023-03-01T17:16:16;16.97;;;12.67;;
11228;SDS011;5671;47.936;8.716;2023-03-01T17:18:44;16.03;;;14.10;;
11228;SDS011;5671;47.936;8.716;2023-03-01T17:21:12;19.63;;;17.17;;
11228;SDS011;5671;47.936;8.716;2023-03-01T17:23:41;24.00;;;18.57;;
11228;SDS011;5671;47.936;8.716;2023-03-01T17:26:10;23.53;;;17.63;;
11228;SDS011;5671;47.936;8.716;2023-03-01T17:28:38;18.50;;;14.83;;
11228;SDS011;5671;47.936;8.716;2023-03-01T17:31:06;16.50;;;13.63;;
11228;SDS011;5671;47.936;8.716;2023-03-01T17:33:33;15.17;;;12.53;;
11228;SDS011;5671;47.936;8.716;2023-03-01T17:36:00;13.80;;;12.30;;
11228;SDS011;5671;47.936;8.716;2023-03-01T17:38:27;16.73;;;12.73;;
11228;SDS011;5671;47.936;8.716;2023-03-01T17:40:56;15.30;;;12.97;;
11228;SDS011;5671;47.936;8.716;2023-03-01T17:43:24;16.50;;;13.87;;
11228;SDS011;5671;47.936;8.716;2023-03-01T17:45:51;19.53;;;15.47;;
11228;SDS011;5671;47.936;8.716;2023-03-01T17:48:19;15.83;;;13.13;;
11228;SDS011;5671;47.936;8.716;2023-03-01T17:50:46;20.07;;;14.27;;